createdAt,value
2019-03-21T00:00:52.258Z,9.10
2019-03-21T00:01:52.262Z,8.90
2019-03-21T00:02:52.278Z,9.20
2019-03-21T00:03:52.288Z,9.10
2019-03-21T00:04:52.302Z,9.30
2019-03-21T00:05:52.319Z,9.30
2019-03-21T00:06:52.329Z,8.70
2019-03-21T00:07:52.344Z,9.10
2019-03-21T00:08:52.353Z,9.10
2019-03-21T00:09:52.362Z,9.00
2019-03-21T00:10:52.372Z,9.10
2019-03-21T00:11:52.386Z,8.70
2019-03-21T00:12:52.399Z,8.90
2019-03-21T00:13:52.407Z,8.50
2019-03-21T00:14:52.484Z,9.40
2019-03-21T00:15:52.434Z,8.60
2019-03-21T00:16:52.449Z,8.80
2019-03-21T00:17:52.462Z,9.00
2019-03-21T00:18:52.469Z,8.60
2019-03-21T00:19:52.485Z,9.50
2019-03-21T00:20:52.492Z,8.50
2019-03-21T00:21:52.525Z,9.40
2019-03-21T00:22:52.522Z,9.00
2019-03-21T00:23:52.527Z,8.80
2019-03-21T00:24:52.547Z,9.40
2019-03-21T00:25:52.560Z,8.90
2019-03-21T00:26:52.578Z,8.80
2019-03-21T00:27:52.577Z,9.10
2019-03-21T00:28:52.591Z,9.10
2019-03-21T00:29:52.614Z,8.60
2019-03-21T00:30:52.622Z,8.80
2019-03-21T00:31:52.632Z,8.90
2019-03-21T00:32:52.647Z,8.80
2019-03-21T00:33:52.645Z,9.00
2019-03-21T00:34:52.663Z,8.60
2019-03-21T00:35:52.663Z,9.00
2019-03-21T00:36:52.705Z,8.50
2019-03-21T00:37:52.723Z,9.20
2019-03-21T00:38:52.713Z,8.80
2019-03-21T00:39:52.851Z,9.00
2019-03-21T00:40:52.739Z,9.30
2019-03-21T00:41:52.757Z,8.80
2019-03-21T00:42:52.765Z,8.40
2019-03-21T00:43:52.773Z,8.60
2019-03-21T00:44:52.785Z,8.70
2019-03-21T00:45:52.812Z,9.00
2019-03-21T00:46:52.813Z,9.00
2019-03-21T00:47:52.832Z,9.10
2019-03-21T00:48:52.840Z,9.20
2019-03-21T00:49:52.844Z,9.40
2019-03-21T00:50:52.852Z,9.50
2019-03-21T00:51:52.866Z,9.50
2019-03-21T00:52:52.890Z,9.40
2019-03-21T00:53:52.908Z,9.60
2019-03-21T00:54:52.916Z,9.30
2019-03-21T00:55:52.930Z,9.20
2019-03-21T00:56:52.930Z,8.90
2019-03-21T00:57:52.941Z,9.00
2019-03-21T00:58:52.958Z,9.10
2019-03-21T00:59:52.964Z,9.20
2019-03-21T01:00:52.980Z,9.10
2019-03-21T01:01:52.992Z,9.50
2019-03-21T01:02:53.006Z,9.30
2019-03-21T01:03:53.020Z,9.20
2019-03-21T01:04:53.028Z,9.20
2019-03-21T01:05:53.042Z,9.40
2019-03-21T01:06:53.054Z,10.00
2019-03-21T01:07:53.069Z,10.00
2019-03-21T01:08:53.091Z,9.80
2019-03-21T01:09:53.085Z,9.80
2019-03-21T01:10:53.108Z,10.00
2019-03-21T01:11:53.116Z,9.60
2019-03-21T01:12:53.124Z,9.80
2019-03-21T01:13:53.133Z,9.70
2019-03-21T01:14:53.144Z,10.00
2019-03-21T01:15:53.160Z,9.50
2019-03-21T01:16:53.172Z,8.90
2019-03-21T01:17:53.182Z,9.40
2019-03-21T01:18:53.188Z,9.50
2019-03-21T01:19:53.204Z,9.20
2019-03-21T01:20:53.370Z,9.60
2019-03-21T01:21:53.228Z,10.00
2019-03-21T01:22:53.408Z,9.80
2019-03-21T01:23:53.259Z,9.80
2019-03-21T01:24:53.272Z,9.60
2019-03-21T01:25:53.278Z,10.10
2019-03-21T01:26:53.290Z,9.30
2019-03-21T01:27:53.305Z,10.20
2019-03-21T01:28:53.324Z,11.00
2019-03-21T01:29:53.332Z,10.80
2019-03-21T01:30:53.337Z,10.60
2019-03-21T01:31:54.613Z,10.90
2019-03-21T01:32:53.366Z,10.30
2019-03-21T01:33:53.369Z,10.90
2019-03-21T01:34:53.390Z,11.50
2019-03-21T01:35:53.400Z,10.90
2019-03-21T01:36:53.408Z,10.80
2019-03-21T01:37:53.418Z,10.70
2019-03-21T01:38:53.434Z,11.10
2019-03-21T01:39:53.444Z,11.60
2019-03-21T01:40:53.456Z,11.00
2019-03-21T01:41:53.462Z,11.20
2019-03-21T01:42:53.486Z,11.10
2019-03-21T01:43:53.484Z,11.80
2019-03-21T01:44:53.490Z,11.60
2019-03-21T01:45:53.530Z,11.30
2019-03-21T01:46:53.524Z,11.30
2019-03-21T01:47:53.532Z,11.10
2019-03-21T01:48:53.545Z,11.50
2019-03-21T01:49:53.556Z,10.80
2019-03-21T01:50:53.577Z,11.10
2019-03-21T01:51:53.585Z,10.80
2019-03-21T01:52:53.591Z,11.20
2019-03-21T01:53:53.605Z,11.20
2019-03-21T01:54:53.614Z,11.30
2019-03-21T01:55:53.623Z,11.40
2019-03-21T01:56:53.637Z,11.90
2019-03-21T01:57:53.651Z,11.90
2019-03-21T01:58:53.665Z,11.50
2019-03-21T01:59:53.677Z,11.20
2019-03-21T02:00:53.684Z,12.10
2019-03-21T02:01:53.695Z,11.70
2019-03-21T02:02:53.709Z,11.70
2019-03-21T02:03:53.721Z,12.00
2019-03-21T02:04:53.731Z,12.00
2019-03-21T02:05:53.753Z,11.80
2019-03-21T02:06:53.763Z,11.60
2019-03-21T02:07:53.763Z,11.80
2019-03-21T02:08:53.789Z,11.70
2019-03-21T02:09:53.793Z,11.90
2019-03-21T02:10:53.804Z,12.10
2019-03-21T02:11:53.809Z,12.80
2019-03-21T02:12:53.821Z,12.10
2019-03-21T02:13:53.837Z,11.60
2019-03-21T02:14:53.859Z,12.10
2019-03-21T02:15:53.859Z,12.20
2019-03-21T02:16:53.872Z,12.10
2019-03-21T02:17:53.881Z,11.90
2019-03-21T02:18:53.897Z,12.10
2019-03-21T02:19:53.907Z,12.10
2019-03-21T02:20:53.917Z,12.40
2019-03-21T02:21:53.929Z,11.90
2019-03-21T02:22:53.941Z,12.00
2019-03-21T02:23:53.949Z,12.10
2019-03-21T02:24:53.969Z,12.30
2019-03-21T02:25:53.974Z,12.40
2019-03-21T02:26:53.991Z,12.60
2019-03-21T02:27:53.995Z,12.10
2019-03-21T02:28:54.005Z,11.70
2019-03-21T02:29:54.023Z,12.50
2019-03-21T02:30:54.046Z,11.90
2019-03-21T02:31:54.044Z,11.90
2019-03-21T02:32:54.060Z,11.90
2019-03-21T02:33:54.069Z,12.70
2019-03-21T02:34:54.086Z,12.40
2019-03-21T02:35:54.145Z,12.30
2019-03-21T02:36:54.107Z,12.10
2019-03-21T02:37:54.119Z,12.20
2019-03-21T02:38:54.126Z,12.20
2019-03-21T02:39:59.902Z,12.60
2019-03-21T02:40:54.160Z,12.30
2019-03-21T02:41:54.167Z,12.80
2019-03-21T02:42:54.170Z,12.20
2019-03-21T02:43:54.183Z,12.30
2019-03-21T02:45:07.651Z,12.60
2019-03-21T02:45:54.205Z,13.00
2019-03-21T02:46:54.219Z,12.40
2019-03-21T02:47:54.232Z,13.30
2019-03-21T02:48:54.243Z,12.70
2019-03-21T02:49:54.248Z,12.40
2019-03-21T02:50:54.269Z,12.70
2019-03-21T02:51:54.286Z,12.40
2019-03-21T02:52:54.323Z,13.00
2019-03-21T02:53:54.294Z,12.60
2019-03-21T02:54:54.317Z,13.10
2019-03-21T02:55:54.318Z,12.80
2019-03-21T02:56:54.330Z,13.20
2019-03-21T02:57:54.341Z,13.40
2019-03-21T02:58:54.361Z,12.70
2019-03-21T02:59:54.354Z,13.40
2019-03-21T03:00:54.380Z,13.60
2019-03-21T03:01:54.390Z,13.30
2019-03-21T03:02:54.402Z,12.90
2019-03-21T03:03:54.442Z,12.40
2019-03-21T03:04:54.433Z,13.00
2019-03-21T03:05:54.429Z,12.70
2019-03-21T03:06:54.445Z,12.60
2019-03-21T03:07:54.452Z,12.50
2019-03-21T03:08:54.463Z,12.90
2019-03-21T03:09:54.477Z,12.40
2019-03-21T03:10:54.491Z,13.20
2019-03-21T03:11:54.515Z,12.90
2019-03-21T03:12:54.518Z,13.20
2019-03-21T03:13:54.533Z,12.70
2019-03-21T03:14:54.557Z,12.60
2019-03-21T03:15:54.615Z,12.60
2019-03-21T03:16:54.554Z,13.00
2019-03-21T03:17:54.575Z,12.40
2019-03-21T03:18:54.589Z,13.10
2019-03-21T03:19:54.592Z,12.50
2019-03-21T03:20:54.607Z,12.70
2019-03-21T03:21:54.629Z,12.60
2019-03-21T03:22:54.642Z,12.30
2019-03-21T03:23:54.638Z,12.90
2019-03-21T03:24:54.653Z,12.60
2019-03-21T03:25:54.647Z,12.10
2019-03-21T03:26:54.668Z,12.60
2019-03-21T03:27:54.675Z,12.40
2019-03-21T03:28:54.688Z,13.00
2019-03-21T03:29:54.704Z,13.00
2019-03-21T03:30:54.715Z,13.00
2019-03-21T03:31:54.719Z,12.50
2019-03-21T03:32:54.733Z,12.80
2019-03-21T03:33:54.733Z,12.20
2019-03-21T03:34:54.754Z,12.70
2019-03-21T03:35:54.830Z,12.00
2019-03-21T03:36:54.792Z,12.50
2019-03-21T03:37:54.791Z,11.60
2019-03-21T03:38:54.801Z,12.80
2019-03-21T03:39:54.916Z,12.30
2019-03-21T03:40:54.821Z,12.50
2019-03-21T03:41:54.833Z,12.50
2019-03-21T03:42:54.848Z,11.70
2019-03-21T03:43:54.969Z,12.00
2019-03-21T03:44:54.865Z,11.50
2019-03-21T03:45:54.892Z,12.00
2019-03-21T03:46:54.887Z,12.70
2019-03-21T03:47:54.900Z,12.20
2019-03-21T03:48:54.913Z,12.60
2019-03-21T03:49:54.947Z,12.10
2019-03-21T03:50:54.942Z,12.00
2019-03-21T03:51:54.954Z,12.00
2019-03-21T03:52:54.960Z,12.30
2019-03-21T03:53:54.969Z,12.40
2019-03-21T03:54:54.988Z,12.40
2019-03-21T03:55:54.993Z,12.40
2019-03-21T03:56:55.000Z,12.50
2019-03-21T03:57:55.020Z,12.20
2019-03-21T03:58:55.025Z,12.10
2019-03-21T03:59:55.033Z,12.50
2019-03-21T04:00:55.048Z,12.40
2019-03-21T04:01:55.053Z,12.40
2019-03-21T04:02:55.064Z,12.40
2019-03-21T04:03:55.080Z,12.00
2019-03-21T04:04:55.085Z,11.90
2019-03-21T04:05:55.101Z,11.90
2019-03-21T04:06:55.113Z,11.40
2019-03-21T04:07:55.127Z,12.40
2019-03-21T04:08:55.133Z,12.40
2019-03-21T04:09:55.160Z,12.40
2019-03-21T04:10:55.148Z,12.20
2019-03-21T04:11:55.165Z,12.30
2019-03-21T04:12:55.180Z,12.30
2019-03-21T04:13:55.192Z,12.20
2019-03-21T04:14:55.202Z,11.70
2019-03-21T04:15:55.218Z,12.20
2019-03-21T04:16:55.228Z,11.80
2019-03-21T04:17:55.233Z,12.00
2019-03-21T04:18:55.246Z,12.20
2019-03-21T04:19:55.252Z,12.20
2019-03-21T04:20:55.272Z,11.90
2019-03-21T04:21:55.315Z,12.00
2019-03-21T04:22:55.289Z,12.00
2019-03-21T04:23:55.312Z,12.80
2019-03-21T04:24:55.316Z,12.10
2019-03-21T04:25:55.348Z,12.50
2019-03-21T04:26:55.335Z,12.60
2019-03-21T04:27:55.346Z,12.90
2019-03-21T04:28:55.367Z,12.90
2019-03-21T04:29:55.370Z,12.30
2019-03-21T04:30:55.379Z,12.30
2019-03-21T04:31:55.401Z,12.40
2019-03-21T04:32:55.408Z,11.90
2019-03-21T04:33:55.410Z,12.60
2019-03-21T04:34:55.464Z,12.60
2019-03-21T04:35:55.439Z,12.30
2019-03-21T04:36:55.450Z,12.60
2019-03-21T04:37:55.455Z,12.80
2019-03-21T04:38:55.473Z,12.50
2019-03-21T04:39:55.484Z,12.70
2019-03-21T04:40:55.489Z,12.60
2019-03-21T04:41:55.497Z,13.20
2019-03-21T04:42:55.518Z,12.80
2019-03-21T04:43:55.522Z,12.60
2019-03-21T04:44:55.531Z,12.50
2019-03-21T04:46:03.277Z,13.40
2019-03-21T04:46:55.554Z,12.50
2019-03-21T04:47:55.569Z,13.10
2019-03-21T04:48:55.570Z,12.90
2019-03-21T04:49:55.582Z,13.40
2019-03-21T04:50:55.598Z,13.10
2019-03-21T04:51:55.612Z,13.20
2019-03-21T04:52:55.614Z,13.30
2019-03-21T04:53:55.641Z,12.90
2019-03-21T04:54:55.639Z,12.80
2019-03-21T04:55:55.659Z,12.90
2019-03-21T04:56:55.664Z,13.40
2019-03-21T04:57:55.674Z,12.70
2019-03-21T04:58:55.686Z,13.00
2019-03-21T04:59:55.700Z,13.00
2019-03-21T05:00:55.715Z,12.70
2019-03-21T05:01:55.723Z,12.50
2019-03-21T05:02:55.731Z,12.50
2019-03-21T05:03:55.732Z,12.80
2019-03-21T05:04:55.753Z,13.10
2019-03-21T05:05:55.765Z,13.10
2019-03-21T05:06:55.772Z,12.80
2019-03-21T05:07:55.781Z,12.50
2019-03-21T05:08:55.794Z,12.60
2019-03-21T05:09:55.807Z,12.60
2019-03-21T05:10:55.813Z,12.70
2019-03-21T05:11:55.828Z,12.30
2019-03-21T05:12:55.837Z,12.40
2019-03-21T05:13:55.858Z,12.40
2019-03-21T05:14:55.862Z,12.20
2019-03-21T05:15:55.876Z,12.10
2019-03-21T05:16:55.878Z,12.30
2019-03-21T05:17:55.898Z,13.00
2019-03-21T05:18:55.902Z,12.90
2019-03-21T05:19:55.910Z,13.30
2019-03-21T05:20:55.927Z,13.30
2019-03-21T05:21:55.934Z,13.50
2019-03-21T05:22:55.950Z,13.60
2019-03-21T05:23:55.954Z,12.90
2019-03-21T05:24:55.963Z,13.40
2019-03-21T05:25:55.975Z,13.60
2019-03-21T05:26:55.989Z,12.60
2019-03-21T05:27:55.999Z,12.80
2019-03-21T05:28:56.015Z,13.70
2019-03-21T05:29:56.021Z,13.20
2019-03-21T05:30:56.043Z,12.70
2019-03-21T05:31:56.041Z,12.70
2019-03-21T05:32:56.051Z,12.30
2019-03-21T05:33:56.058Z,12.60
2019-03-21T05:34:56.074Z,12.80
2019-03-21T05:35:56.082Z,12.20
2019-03-21T05:36:56.107Z,12.20
2019-03-21T05:37:56.125Z,12.40
2019-03-21T05:38:56.107Z,12.10
2019-03-21T05:39:56.127Z,11.90
2019-03-21T05:40:56.152Z,11.60
2019-03-21T05:41:56.147Z,11.90
2019-03-21T05:42:56.159Z,12.10
2019-03-21T05:43:56.170Z,12.00
2019-03-21T05:44:56.179Z,11.80
2019-03-21T05:45:56.191Z,12.20
2019-03-21T05:46:56.215Z,11.80
2019-03-21T05:47:56.219Z,11.70
2019-03-21T05:48:56.249Z,11.50
2019-03-21T05:49:56.231Z,11.80
2019-03-21T05:50:56.240Z,11.60
2019-03-21T05:51:56.249Z,12.10
2019-03-21T05:52:56.271Z,11.90
2019-03-21T05:53:56.295Z,11.80
2019-03-21T05:54:56.283Z,12.10
2019-03-21T05:55:56.299Z,12.60
2019-03-21T05:56:56.311Z,12.30
2019-03-21T05:57:56.318Z,12.10
2019-03-21T05:58:56.327Z,11.90
2019-03-21T05:59:56.339Z,12.20
2019-03-21T06:00:56.353Z,11.50
2019-03-21T06:01:56.357Z,11.40
2019-03-21T06:02:56.375Z,11.80
2019-03-21T06:03:56.373Z,11.90
2019-03-21T06:04:56.391Z,17.30
2019-03-21T06:05:56.403Z,17.60
2019-03-21T06:06:56.412Z,15.10
2019-03-21T06:07:56.426Z,12.70
2019-03-21T06:08:56.433Z,12.60
2019-03-21T06:09:56.447Z,11.70
2019-03-21T06:10:56.469Z,12.10
2019-03-21T06:11:56.469Z,12.40
2019-03-21T06:12:56.479Z,12.20
2019-03-21T06:13:56.483Z,12.00
2019-03-21T06:14:56.499Z,12.00
2019-03-21T06:15:56.502Z,11.70
2019-03-21T06:16:56.515Z,12.20
2019-03-21T06:17:56.519Z,11.50
2019-03-21T06:18:56.537Z,11.90
2019-03-21T06:19:56.543Z,11.70
2019-03-21T06:20:56.561Z,12.20
2019-03-21T06:21:56.567Z,11.30
2019-03-21T06:22:56.577Z,12.00
2019-03-21T06:23:56.589Z,12.60
2019-03-21T06:24:56.604Z,12.40
2019-03-21T06:25:56.614Z,11.90
2019-03-21T06:26:56.622Z,11.80
2019-03-21T06:27:56.634Z,11.90
2019-03-21T06:28:56.630Z,11.60
2019-03-21T06:29:56.696Z,11.70
2019-03-21T06:30:56.663Z,12.00
2019-03-21T06:31:56.676Z,12.60
2019-03-21T06:32:56.697Z,12.00
2019-03-21T06:33:56.701Z,12.10
2019-03-21T06:34:56.706Z,11.70
2019-03-21T06:35:56.717Z,12.10
2019-03-21T06:36:56.726Z,11.60
2019-03-21T06:37:56.746Z,12.00
2019-03-21T06:38:56.758Z,11.50
2019-03-21T06:39:56.768Z,11.60
2019-03-21T06:40:56.767Z,11.50
2019-03-21T06:41:56.786Z,11.30
2019-03-21T06:42:56.798Z,11.60
2019-03-21T06:43:56.789Z,11.40
2019-03-21T06:44:56.814Z,11.50
2019-03-21T06:45:56.848Z,11.50
2019-03-21T06:46:56.834Z,12.00
2019-03-21T06:47:56.957Z,11.10
2019-03-21T06:48:56.861Z,11.30
2019-03-21T06:49:56.877Z,11.20
2019-03-21T06:50:56.884Z,11.80
2019-03-21T06:51:56.897Z,11.70
2019-03-21T06:52:56.902Z,12.30
2019-03-21T06:53:57.012Z,11.80
2019-03-21T06:54:56.937Z,11.70
2019-03-21T06:55:56.934Z,11.60
2019-03-21T06:56:56.948Z,11.70
2019-03-21T06:57:56.978Z,12.00
2019-03-21T06:58:56.991Z,11.70
2019-03-21T06:59:56.998Z,11.80
2019-03-21T07:00:56.991Z,11.80
2019-03-21T07:01:57.011Z,11.80
2019-03-21T07:02:57.011Z,11.00
2019-03-21T07:04:06.581Z,11.30
2019-03-21T07:04:57.032Z,11.00
2019-03-21T07:05:57.040Z,10.90
2019-03-21T07:07:07.684Z,10.80
2019-03-21T07:07:57.068Z,11.10
2019-03-21T07:08:57.082Z,10.90
2019-03-21T07:09:57.092Z,11.20
2019-03-21T07:10:58.408Z,10.90
2019-03-21T07:11:57.111Z,11.10
2019-03-21T07:12:57.131Z,11.20
2019-03-21T07:13:57.142Z,11.00
2019-03-21T07:14:57.148Z,11.60
2019-03-21T07:15:57.157Z,11.20
2019-03-21T07:17:00.698Z,10.70
2019-03-21T07:17:57.187Z,11.10
2019-03-21T07:18:57.199Z,11.20
2019-03-21T07:19:57.202Z,11.10
2019-03-21T07:20:57.223Z,11.00
2019-03-21T07:21:57.232Z,10.90
2019-03-21T07:22:57.238Z,11.00
2019-03-21T07:23:57.252Z,10.80
2019-03-21T07:24:57.262Z,10.30
2019-03-21T07:25:57.279Z,10.50
2019-03-21T07:26:57.290Z,10.90
2019-03-21T07:27:57.313Z,11.10
2019-03-21T07:28:57.312Z,10.80
2019-03-21T07:29:57.322Z,10.50
2019-03-21T07:30:57.825Z,10.60
2019-03-21T07:31:57.353Z,10.80
2019-03-21T07:32:57.387Z,10.60
2019-03-21T07:33:57.370Z,10.60
2019-03-21T07:34:57.389Z,10.00
2019-03-21T07:35:57.443Z,10.20
2019-03-21T07:36:57.407Z,10.20
2019-03-21T07:37:57.414Z,10.20
2019-03-21T07:38:57.536Z,10.20
2019-03-21T07:39:57.436Z,10.60
2019-03-21T07:40:57.448Z,10.70
2019-03-21T07:41:57.463Z,10.00
2019-03-21T07:42:57.480Z,10.10
2019-03-21T07:43:57.479Z,10.70
2019-03-21T07:44:57.503Z,10.10
2019-03-21T07:45:57.508Z,9.90
2019-03-21T07:46:57.523Z,10.30
2019-03-21T07:47:57.538Z,10.50
2019-03-21T07:48:57.542Z,10.40
2019-03-21T07:49:57.557Z,9.80
2019-03-21T07:50:57.566Z,10.30
2019-03-21T07:51:57.580Z,10.10
2019-03-21T07:52:57.593Z,10.40
2019-03-21T07:53:57.642Z,10.20
2019-03-21T07:54:57.610Z,10.40
2019-03-21T07:55:57.617Z,9.70
2019-03-21T07:56:57.635Z,10.30
2019-03-21T07:57:59.467Z,10.20
2019-03-21T07:58:57.985Z,10.40
2019-03-21T07:59:57.696Z,9.60
2019-03-21T08:00:57.683Z,9.60
2019-03-21T08:01:57.700Z,10.00
2019-03-21T08:02:57.711Z,10.40
2019-03-21T08:03:57.719Z,9.90
2019-03-21T08:04:57.726Z,10.40
2019-03-21T08:05:57.740Z,10.40
2019-03-21T08:06:57.777Z,10.60
2019-03-21T08:07:57.767Z,10.40
2019-03-21T08:08:57.777Z,10.40
2019-03-21T08:09:57.787Z,10.60
2019-03-21T08:10:57.799Z,9.90
2019-03-21T08:11:57.812Z,10.60
2019-03-21T08:12:57.829Z,10.40
2019-03-21T08:13:57.835Z,10.40
2019-03-21T08:14:57.868Z,10.90
2019-03-21T08:15:57.864Z,10.90
2019-03-21T08:16:57.873Z,11.80
2019-03-21T08:17:57.889Z,10.60
2019-03-21T08:18:57.897Z,10.60
2019-03-21T08:19:57.903Z,13.30
2019-03-21T08:21:00.064Z,15.40
2019-03-21T08:21:57.931Z,18.10
2019-03-21T08:22:57.945Z,18.60
2019-03-21T08:23:57.965Z,10.70
2019-03-21T08:24:57.973Z,10.80
2019-03-21T08:25:57.980Z,11.20
2019-03-21T08:26:57.996Z,11.10
2019-03-21T08:27:58.008Z,11.20
2019-03-21T08:28:58.018Z,11.40
2019-03-21T08:29:58.030Z,11.10
2019-03-21T08:30:58.044Z,11.10
2019-03-21T08:31:58.058Z,11.20
2019-03-21T08:32:58.072Z,11.40
2019-03-21T08:33:58.083Z,11.00
2019-03-21T08:34:58.107Z,11.10
2019-03-21T08:35:58.109Z,11.30
2019-03-21T08:36:58.126Z,11.20
2019-03-21T08:37:58.139Z,10.60
2019-03-21T08:38:58.148Z,11.60
2019-03-21T08:39:58.156Z,11.50
2019-03-21T08:40:58.172Z,11.20
2019-03-21T08:41:58.188Z,10.90
2019-03-21T08:42:58.198Z,11.20
2019-03-21T08:43:58.212Z,11.50
2019-03-21T08:44:58.230Z,11.20
2019-03-21T08:45:58.240Z,11.60
2019-03-21T08:46:58.253Z,15.10
2019-03-21T08:47:58.267Z,15.70
2019-03-21T08:48:58.286Z,13.30
2019-03-21T08:49:58.294Z,12.30
2019-03-21T08:51:07.636Z,11.50
2019-03-21T08:51:58.316Z,11.30
2019-03-21T08:52:58.336Z,11.50
2019-03-21T08:53:58.347Z,12.10
2019-03-21T08:54:58.363Z,12.30
2019-03-21T08:55:58.372Z,11.80
2019-03-21T08:56:58.393Z,12.50
2019-03-21T08:57:58.408Z,11.90
2019-03-21T08:58:58.416Z,12.00
2019-03-21T08:59:58.468Z,11.30
2019-03-21T09:00:58.444Z,11.90
2019-03-21T09:01:58.463Z,11.30
2019-03-21T09:02:58.473Z,11.60
2019-03-21T09:03:58.488Z,11.70
2019-03-21T09:04:59.753Z,11.40
2019-03-21T09:05:58.514Z,11.40
2019-03-21T09:06:58.540Z,12.10
2019-03-21T09:07:58.540Z,11.50
2019-03-21T09:08:58.557Z,11.80
2019-03-21T09:09:58.571Z,11.60
2019-03-21T09:10:58.587Z,11.90
2019-03-21T09:11:58.607Z,11.50
2019-03-21T09:12:58.616Z,11.40
2019-03-21T09:13:58.628Z,11.60
2019-03-21T09:14:58.640Z,11.60
2019-03-21T09:15:58.650Z,11.20
2019-03-21T09:16:58.668Z,11.30
2019-03-21T09:17:58.675Z,11.70
2019-03-21T09:18:58.700Z,11.60
2019-03-21T09:19:58.717Z,11.00
2019-03-21T09:20:58.730Z,11.70
2019-03-21T09:21:58.740Z,11.80
2019-03-21T09:22:58.755Z,11.10
2019-03-21T09:23:58.770Z,11.00
2019-03-21T09:24:58.778Z,12.00
2019-03-21T09:25:58.796Z,11.80
2019-03-21T09:26:58.817Z,11.50
2019-03-21T09:28:02.981Z,11.10
2019-03-21T09:28:58.848Z,12.60
2019-03-21T09:29:58.852Z,11.40
2019-03-21T09:30:58.871Z,11.80
2019-03-21T09:31:58.878Z,11.30
2019-03-21T09:32:58.898Z,11.60
2019-03-21T09:33:58.922Z,11.70
2019-03-21T09:34:58.933Z,13.50
2019-03-21T09:35:59.058Z,12.00
2019-03-21T09:36:58.954Z,12.60
2019-03-21T09:37:59.040Z,11.10
2019-03-21T09:38:58.982Z,11.10
2019-03-21T09:39:59.008Z,11.60
2019-03-21T09:40:59.010Z,13.00
2019-03-21T09:41:59.032Z,11.00
2019-03-21T09:42:59.051Z,11.40
2019-03-21T09:43:59.064Z,10.60
2019-03-21T09:44:59.074Z,10.90
2019-03-21T09:45:59.088Z,11.40
2019-03-21T09:46:59.102Z,10.60
2019-03-21T09:47:59.110Z,11.50
2019-03-21T09:48:59.124Z,11.10
2019-03-21T09:49:59.472Z,11.30
2019-03-21T09:50:59.160Z,11.10
2019-03-21T09:51:59.170Z,10.90
2019-03-21T09:52:59.229Z,16.70
2019-03-21T09:54:09.280Z,13.30
2019-03-21T09:54:59.221Z,10.90
2019-03-21T09:56:01.168Z,9.90
2019-03-21T09:56:59.244Z,10.30
2019-03-21T09:57:59.260Z,9.40
2019-03-21T09:58:59.280Z,9.40
2019-03-21T09:59:59.288Z,9.70
2019-03-21T10:00:59.308Z,10.00
2019-03-21T10:01:59.324Z,10.10
2019-03-21T10:02:59.336Z,9.40
2019-03-21T10:03:59.352Z,9.40
2019-03-21T10:04:59.364Z,9.60
2019-03-21T10:05:59.392Z,9.80
2019-03-21T10:06:59.398Z,9.30
2019-03-21T10:07:59.748Z,9.60
2019-03-21T10:08:59.513Z,9.70
2019-03-21T10:09:59.456Z,9.40
2019-03-21T10:10:59.585Z,9.50
2019-03-21T10:11:59.494Z,9.50
2019-03-21T10:12:59.518Z,9.90
2019-03-21T10:13:59.524Z,9.60
2019-03-21T10:14:59.584Z,9.70
2019-03-21T10:15:59.568Z,9.60
2019-03-21T10:16:59.584Z,10.20
2019-03-21T10:17:59.605Z,9.30
2019-03-21T10:18:59.620Z,9.10
2019-03-21T10:19:59.647Z,9.70
2019-03-21T10:20:59.666Z,9.90
2019-03-21T10:21:59.684Z,9.60
2019-03-21T10:22:59.701Z,10.00
2019-03-21T10:23:59.731Z,9.80
2019-03-21T10:24:59.753Z,9.80
2019-03-21T10:25:59.762Z,9.60
2019-03-21T10:26:59.781Z,9.90
2019-03-21T10:27:59.808Z,9.90
2019-03-21T10:28:59.870Z,9.90
2019-03-21T10:29:59.851Z,9.70
2019-03-21T10:30:59.872Z,9.50
2019-03-21T10:31:59.888Z,10.20
2019-03-21T10:32:59.911Z,10.30
2019-03-21T10:33:59.980Z,10.00
2019-03-21T10:34:59.955Z,10.10
2019-03-21T10:35:59.971Z,9.70
2019-03-21T10:36:59.991Z,9.60
2019-03-21T10:38:00.019Z,10.70
2019-03-21T10:39:00.041Z,9.90
2019-03-21T10:40:00.060Z,9.60
2019-03-21T10:41:00.080Z,9.50
2019-03-21T10:42:00.104Z,9.80
2019-03-21T10:43:00.121Z,9.70
2019-03-21T10:44:00.144Z,9.60
2019-03-21T10:45:00.355Z,9.10
2019-03-21T10:46:00.204Z,9.70
2019-03-21T10:47:00.209Z,8.70
2019-03-21T10:48:00.229Z,9.10
2019-03-21T10:49:00.253Z,9.00
2019-03-21T10:50:00.436Z,8.40
2019-03-21T10:51:00.291Z,8.70
2019-03-21T10:52:00.315Z,8.80
2019-03-21T10:53:00.340Z,8.90
2019-03-21T10:54:00.357Z,8.20
2019-03-21T10:55:00.474Z,7.90
2019-03-21T10:56:00.406Z,7.40
2019-03-21T10:57:00.428Z,7.60
2019-03-21T10:58:00.444Z,6.90
2019-03-21T10:59:00.464Z,7.40
2019-03-21T11:00:01.989Z,7.60
2019-03-21T11:01:00.531Z,8.40
2019-03-21T11:02:07.283Z,7.70
2019-03-21T11:03:00.556Z,7.80
2019-03-21T11:04:00.578Z,8.30
2019-03-21T11:05:00.603Z,8.70
2019-03-21T11:06:00.622Z,7.70
2019-03-21T11:07:00.643Z,7.00
2019-03-21T11:08:00.665Z,6.90
2019-03-21T11:09:00.680Z,6.40
2019-03-21T11:10:00.705Z,5.80
2019-03-21T11:11:00.737Z,5.90
2019-03-21T11:12:00.776Z,3.60
2019-03-21T11:13:00.771Z,4.20
2019-03-21T11:14:00.793Z,4.90
2019-03-21T11:15:00.821Z,6.40
2019-03-21T11:16:00.838Z,6.30
2019-03-21T11:17:00.861Z,6.50
2019-03-21T11:18:00.867Z,6.20
2019-03-21T11:19:00.908Z,6.20
2019-03-21T11:20:01.006Z,6.20
2019-03-21T11:21:00.971Z,5.80
2019-03-21T11:22:06.283Z,5.80
2019-03-21T11:23:00.993Z,5.40
2019-03-21T11:24:01.017Z,5.40
2019-03-21T11:25:01.027Z,5.70
2019-03-21T11:26:01.071Z,6.10
2019-03-21T11:27:01.079Z,5.80
2019-03-21T11:28:01.098Z,5.60
2019-03-21T11:29:01.119Z,4.50
2019-03-21T11:30:01.147Z,5.10
2019-03-21T11:31:01.167Z,5.80
2019-03-21T11:32:01.189Z,5.30
2019-03-21T11:33:01.207Z,6.00
2019-03-21T11:34:01.227Z,6.70
2019-03-21T11:35:01.255Z,6.30
2019-03-21T11:36:01.279Z,6.00
2019-03-21T11:37:01.297Z,6.20
2019-03-21T11:38:01.336Z,5.40
2019-03-21T11:39:01.343Z,5.50
2019-03-21T11:40:01.370Z,5.80
2019-03-21T11:41:01.397Z,8.30
2019-03-21T11:42:01.469Z,23.80
2019-03-21T11:43:01.573Z,5.50
2019-03-21T11:44:01.459Z,5.50
2019-03-21T11:45:01.614Z,5.50
2019-03-21T11:46:01.510Z,5.60
2019-03-21T11:47:01.593Z,5.30
2019-03-21T11:48:01.558Z,5.20
2019-03-21T11:49:01.567Z,5.50
2019-03-21T11:50:01.589Z,6.20
2019-03-21T11:51:01.622Z,5.50
2019-03-21T11:52:01.647Z,5.60
2019-03-21T11:53:01.653Z,5.40
2019-03-21T11:54:01.674Z,5.40
2019-03-21T11:55:01.724Z,5.20
2019-03-21T11:56:01.738Z,5.50
2019-03-21T11:57:01.749Z,5.30
2019-03-21T11:58:01.787Z,5.50
2019-03-21T11:59:01.787Z,5.70
2019-03-21T12:00:01.812Z,5.50
2019-03-21T12:01:01.927Z,5.40
2019-03-21T12:02:01.855Z,5.30
2019-03-21T12:03:04.130Z,5.20
2019-03-21T12:04:01.898Z,5.20
2019-03-21T12:05:01.921Z,5.20
2019-03-21T12:06:01.943Z,5.10
2019-03-21T12:07:01.968Z,4.90
2019-03-21T12:08:01.991Z,5.10
2019-03-21T12:09:02.016Z,4.80
2019-03-21T12:10:02.037Z,5.20
2019-03-21T12:11:02.057Z,4.80
2019-03-21T12:12:02.081Z,5.30
2019-03-21T12:13:02.105Z,5.10
2019-03-21T12:14:02.128Z,4.90
2019-03-21T12:15:02.156Z,5.30
2019-03-21T12:16:02.185Z,5.10
2019-03-21T12:17:02.197Z,4.70
2019-03-21T12:18:02.227Z,4.80
2019-03-21T12:19:02.245Z,4.60
2019-03-21T12:20:02.273Z,4.60
2019-03-21T12:21:02.296Z,4.50
2019-03-21T12:22:02.325Z,4.90
2019-03-21T12:23:02.345Z,4.10
2019-03-21T12:24:02.365Z,4.50
2019-03-21T12:25:02.398Z,4.20
2019-03-21T12:26:02.431Z,4.30
2019-03-21T12:27:02.444Z,4.10
2019-03-21T12:28:02.465Z,4.20
2019-03-21T12:29:02.511Z,3.90
2019-03-21T12:30:02.512Z,4.10
2019-03-21T12:31:02.542Z,4.00
2019-03-21T12:32:02.568Z,3.90
2019-03-21T12:33:02.584Z,4.60
2019-03-21T12:34:02.613Z,4.60
2019-03-21T12:35:02.648Z,4.70
2019-03-21T12:36:02.665Z,4.50
2019-03-21T12:37:02.688Z,4.40
2019-03-21T12:38:02.705Z,4.20
2019-03-21T12:39:02.736Z,4.30
2019-03-21T12:40:02.768Z,4.20
2019-03-21T12:41:02.785Z,4.00
2019-03-21T12:42:02.821Z,3.80
2019-03-21T12:43:02.833Z,4.20
2019-03-21T12:44:02.851Z,3.80
2019-03-21T12:45:02.883Z,4.00
2019-03-21T12:46:02.899Z,4.00
2019-03-21T12:47:02.951Z,3.90
2019-03-21T12:48:02.977Z,4.30
2019-03-21T12:49:02.989Z,4.30
2019-03-21T12:50:03.008Z,4.20
2019-03-21T12:51:03.049Z,6.40
2019-03-21T12:52:03.055Z,4.90
2019-03-21T12:53:03.088Z,4.50
2019-03-21T12:54:03.103Z,4.30
2019-03-21T12:55:03.135Z,6.50
2019-03-21T12:56:03.157Z,4.90
2019-03-21T12:57:03.177Z,4.50
2019-03-21T12:58:03.204Z,4.30
2019-03-21T12:59:03.252Z,4.00
2019-03-21T13:00:03.260Z,4.20
2019-03-21T13:01:03.285Z,4.40
2019-03-21T13:02:03.317Z,4.20